Time;durP1;ratioP1;P1;durP2;ratioP2;P2;SDS_P1;SDS_P2;PMS_P1;PMS_P2;Temp;Humidity;BMP_temperature;BMP_pressure;BME280_temperature;BME280_humidity;BME280_pressure;Samples;Min_cycle;Max_cycle;Signal;HPM_P1;HPM_P2
2022/07/05 00:00:19;;;;;;;13.05;11.82;;;;;;;-140.79;100.00;63287.88;5019603;28;20029;-55
2022/07/05 00:02:44;;;;;;;15.40;13.80;;;;;;;-140.79;100.00;63287.88;5016164;28;20026;-56
2022/07/05 00:05:10;;;;;;;16.50;14.25;;;;;;;-140.79;100.00;63287.88;5019461;28;20052;-57
2022/07/05 00:07:35;;;;;;;14.70;13.35;;;;;;;-140.79;100.00;63287.88;5022787;28;20033;-53
2022/07/05 00:10:01;;;;;;;17.98;16.27;;;;;;;-140.79;100.00;63287.88;5019254;28;20442;-57
2022/07/05 00:12:28;;;;;;;14.95;13.65;;;;;;;-140.79;100.00;63287.88;5001972;28;20022;-55
2022/07/05 00:14:53;;;;;;;13.27;12.02;;;;;;;-140.79;100.00;63287.88;5001591;28;20075;-58
2022/07/05 00:17:19;;;;;;;17.30;15.52;;;;;;;-140.79;100.00;63287.88;5018550;28;20033;-55
2022/07/05 00:19:45;;;;;;;11.95;10.60;;;;;;;-140.79;100.00;63287.88;5021922;28;20766;-58
2022/07/05 00:22:10;;;;;;;14.63;12.80;;;;;;;-140.79;100.00;63287.88;5018513;28;20025;-58
2022/07/05 00:24:35;;;;;;;22.58;19.40;;;;;;;-140.79;100.00;63287.88;5021382;28;20344;-58
2022/07/05 00:27:01;;;;;;;17.98;16.50;;;;;;;-140.79;100.00;63287.88;5021018;28;20124;-57
2022/07/05 00:29:27;;;;;;;20.55;18.55;;;;;;;-140.79;100.00;63287.88;5019183;28;20040;-58
2022/07/05 00:31:52;;;;;;;24.67;22.60;;;;;;;-140.79;100.00;63287.88;5020768;28;20040;-57
2022/07/05 00:34:18;;;;;;;20.67;18.58;;;;;;;-140.79;100.00;63287.88;5018978;28;20506;-58
2022/07/05 00:36:43;;;;;;;17.95;16.13;;;;;;;-140.79;100.00;63287.88;5021461;28;20029;-54
2022/07/05 00:39:09;;;;;;;17.60;16.02;;;;;;;-140.79;100.00;63287.88;5018577;28;20104;-57
2022/07/05 00:41:34;;;;;;;23.95;21.65;;;;;;;-140.79;100.00;63287.88;5017605;28;20041;-55
2022/07/05 00:44:04;;;;;;;23.55;21.33;;;;;;;-140.79;100.00;63287.88;5019002;28;20126;-58
2022/07/05 00:46:30;;;;;;;20.95;19.08;;;;;;;-140.79;100.00;63287.88;5020804;28;20057;-55
2022/07/05 00:48:56;;;;;;;19.08;17.17;;;;;;;-140.79;100.00;63287.88;5017508;28;20022;-55
2022/07/05 00:51:22;;;;;;;28.70;25.83;;;;;;;-140.79;100.00;63287.88;5000187;28;20075;-53
2022/07/05 00:53:48;;;;;;;20.15;16.75;;;;;;;-140.79;100.00;63287.88;4998889;28;20034;-57
2022/07/05 00:56:14;;;;;;;28.63;25.88;;;;;;;-140.79;100.00;63287.88;5016321;28;20028;-56
2022/07/05 00:58:39;;;;;;;21.38;19.48;;;;;;;-140.79;100.00;63287.88;5019292;28;20018;-56
2022/07/05 01:01:06;;;;;;;24.95;22.73;;;;;;;-140.79;100.00;63287.88;5020687;28;20494;-54
2022/07/05 01:03:32;;;;;;;25.73;23.25;;;;;;;-140.79;100.00;63287.88;5002870;28;20017;-53
2022/07/05 01:05:57;;;;;;;23.35;21.20;;;;;;;-140.79;100.00;63287.88;4995407;28;20034;-53
2022/07/05 01:08:23;;;;;;;17.52;15.98;;;;;;;-140.79;100.00;63287.88;4980563;28;20440;-53
2022/07/05 01:10:52;;;;;;;25.70;23.35;;;;;;;-140.79;100.00;63287.88;4998935;28;20112;-53
2022/07/05 01:13:17;;;;;;;27.15;24.65;;;;;;;-140.79;100.00;63287.88;5019050;28;20022;-53
2022/07/05 01:15:43;;;;;;;28.48;26.00;;;;;;;-140.79;100.00;63287.88;5019251;28;20033;-55
2022/07/05 01:18:08;;;;;;;26.17;23.70;;;;;;;-140.79;100.00;63287.88;5022184;28;20028;-55
2022/07/05 01:20:34;;;;;;;18.45;16.85;;;;;;;-140.79;100.00;63287.88;5020566;28;20030;-55
2022/07/05 01:22:59;;;;;;;24.08;21.67;;;;;;;-140.79;100.00;63287.88;5002369;28;20522;-54
2022/07/05 01:25:26;;;;;;;23.40;21.15;;;;;;;-140.79;100.00;63287.88;5018434;28;20044;-55
2022/07/05 01:27:52;;;;;;;22.23;20.13;;;;;;;-140.79;100.00;63287.88;4999898;28;20053;-54
2022/07/05 01:30:17;;;;;;;30.45;27.45;;;;;;;-140.79;100.00;63287.88;5028540;28;20014;-54
2022/07/05 01:32:43;;;;;;;28.20;25.63;;;;;;;-140.79;100.00;63287.88;4983718;28;20463;-54
2022/07/05 01:35:09;;;;;;;25.00;22.85;;;;;;;-140.79;100.00;63287.88;5003021;28;20036;-54
2022/07/05 01:37:35;;;;;;;27.88;25.48;;;;;;;-140.79;100.00;63287.88;5015493;28;20048;-55
2022/07/05 01:40:03;;;;;;;26.65;24.10;;;;;;;-140.79;100.00;63287.88;5020021;28;20091;-55
2022/07/05 01:42:29;;;;;;;30.58;27.70;;;;;;;-140.79;100.00;63287.88;5015444;28;20542;-54
2022/07/05 01:44:54;;;;;;;30.20;27.30;;;;;;;-140.79;100.00;63287.88;5017670;28;20508;-53
2022/07/05 01:47:20;;;;;;;25.83;23.52;;;;;;;-140.79;100.00;63287.88;5018932;28;20026;-53
2022/07/05 01:49:46;;;;;;;24.60;22.55;;;;;;;-140.79;100.00;63287.88;5020025;28;20038;-54
2022/07/05 01:52:12;;;;;;;27.10;24.60;;;;;;;-140.79;100.00;63287.88;5014306;28;20104;-53
2022/07/05 01:54:38;;;;;;;22.55;20.38;;;;;;;-140.79;100.00;63287.88;5019857;28;20131;-53
2022/07/05 01:57:06;;;;;;;24.77;22.55;;;;;;;-140.79;100.00;63287.88;4998588;28;20722;-53
2022/07/05 01:59:33;;;;;;;21.75;19.70;;;;;;;-140.79;100.00;63287.88;5017653;28;20052;-52
2022/07/05 02:01:59;;;;;;;24.88;22.42;;;;;;;-140.79;100.00;63287.88;5015288;28;20061;-54
2022/07/05 02:04:25;;;;;;;20.20;16.45;;;;;;;-140.79;100.00;63287.88;4998322;28;20024;-54
2022/07/05 02:06:50;;;;;;;16.55;15.00;;;;;;;-140.79;100.00;63287.88;5014267;28;20021;-53
2022/07/05 02:09:15;;;;;;;21.95;19.70;;;;;;;-140.79;100.00;63287.88;5017533;28;20482;-53
2022/07/05 02:11:41;;;;;;;16.70;15.00;;;;;;;-140.79;100.00;63287.88;5014117;28;20087;-53
2022/07/05 02:14:06;;;;;;;17.48;15.82;;;;;;;-140.79;100.00;63287.88;5017501;28;20021;-54
2022/07/05 02:16:32;;;;;;;19.80;17.77;;;;;;;-140.79;100.00;63287.88;5015521;28;20026;-54
2022/07/05 02:18:58;;;;;;;21.17;19.10;;;;;;;-140.79;100.00;63287.88;4999923;28;20464;-53
2022/07/05 02:21:23;;;;;;;18.23;16.70;;;;;;;-140.79;100.00;63287.88;5016039;28;20598;-53
2022/07/05 02:23:49;;;;;;;18.67;17.02;;;;;;;-140.79;100.00;63287.88;5020655;28;20037;-53
2022/07/05 02:26:14;;;;;;;16.92;15.23;;;;;;;-140.79;100.00;63287.88;5016792;28;20127;-53
2022/07/05 02:28:40;;;;;;;17.60;15.77;;;;;;;-140.79;100.00;63287.88;5017687;28;20025;-53
2022/07/05 02:31:05;;;;;;;22.20;19.92;;;;;;;-140.79;100.00;63287.88;5017961;28;20029;-52
2022/07/05 02:33:31;;;;;;;18.98;17.27;;;;;;;-140.79;100.00;63287.88;5018730;28;20022;-52
2022/07/05 02:35:56;;;;;;;26.75;24.23;;;;;;;-140.79;100.00;63287.88;5015715;28;20087;-54
2022/07/05 02:38:23;;;;;;;22.55;20.30;;;;;;;-140.79;100.00;63287.88;5014223;28;20018;-53
2022/07/05 02:40:48;;;;;;;23.60;21.45;;;;;;;-140.79;100.00;63287.88;5016260;28;20025;-52
2022/07/05 02:43:14;;;;;;;25.98;23.67;;;;;;;-140.79;100.00;63287.88;5017867;28;20041;-52
2022/07/05 02:45:39;;;;;;;12.00;10.80;;;;;;;-140.79;100.00;63287.88;5018117;28;20049;-53
2022/07/05 02:48:05;;;;;;;16.02;14.43;;;;;;;-140.79;100.00;63287.88;5004474;28;20041;-52
2022/07/05 02:50:31;;;;;;;15.27;13.80;;;;;;;-140.79;100.00;63287.88;5015190;28;20042;-53
2022/07/05 02:52:57;;;;;;;21.63;19.75;;;;;;;-140.79;100.00;63287.88;5015730;28;20036;-53
2022/07/05 02:55:22;;;;;;;24.02;22.00;;;;;;;-140.79;100.00;63287.88;4998422;28;20029;-53
2022/07/05 02:57:48;;;;;;;24.42;21.95;;;;;;;-140.79;100.00;63287.88;5014862;28;20104;-54
2022/07/05 03:00:14;;;;;;;24.02;21.65;;;;;;;-140.79;100.00;63287.88;5014841;28;20390;-53
2022/07/05 03:02:39;;;;;;;20.23;18.45;;;;;;;-140.79;100.00;63287.88;5017336;28;20061;-53
2022/07/05 03:05:05;;;;;;;25.27;22.95;;;;;;;-140.79;100.00;63287.88;5018477;28;20025;-54
2022/07/05 03:07:31;;;;;;;33.05;29.65;;;;;;;-140.79;100.00;63287.88;5018054;28;20757;-53
2022/07/05 03:09:56;;;;;;;33.33;30.42;;;;;;;-140.79;100.00;63287.88;5016420;28;20033;-56
2022/07/05 03:12:22;;;;;;;36.92;33.30;;;;;;;-140.79;100.00;63287.88;5016001;28;20034;-53
2022/07/05 03:14:47;;;;;;;33.38;30.40;;;;;;;-140.79;100.00;63287.88;5012512;28;20111;-54
2022/07/05 03:17:12;;;;;;;34.25;31.05;;;;;;;-140.79;100.00;63287.88;5016091;28;20573;-55
2022/07/05 03:19:38;;;;;;;33.47;30.63;;;;;;;-140.79;100.00;63287.88;5018210;28;20663;-55
2022/07/05 03:22:03;;;;;;;40.05;36.13;;;;;;;-140.79;100.00;63287.88;5012605;28;20044;-53
2022/07/05 03:24:29;;;;;;;28.70;25.80;;;;;;;-140.79;100.00;63287.88;5016270;28;20030;-53
2022/07/05 03:26:54;;;;;;;34.40;31.33;;;;;;;-140.79;100.00;63287.88;5019108;28;20037;-54
2022/07/05 03:29:20;;;;;;;39.80;35.80;;;;;;;-140.79;100.00;63287.88;5014658;28;20222;-53
2022/07/05 03:31:45;;;;;;;38.45;34.78;;;;;;;-140.79;100.00;63287.88;5007439;28;20148;-58
2022/07/05 03:34:11;;;;;;;41.08;37.05;;;;;;;-140.79;100.00;63287.88;5018957;28;20477;-54
2022/07/05 03:36:36;;;;;;;38.70;34.85;;;;;;;-140.79;100.00;63287.88;5017395;28;20025;-55
2022/07/05 03:39:02;;;;;;;32.83;29.75;;;;;;;-140.79;100.00;63287.88;5018849;28;20038;-53
2022/07/05 03:41:27;;;;;;;34.25;31.05;;;;;;;-140.79;100.00;63287.88;5019874;28;20034;-53
2022/07/05 03:43:53;;;;;;;31.45;28.70;;;;;;;-140.79;100.00;63287.88;5019919;28;20017;-55
2022/07/05 03:46:18;;;;;;;37.55;34.17;;;;;;;-140.79;100.00;63287.88;5015965;28;20753;-53
2022/07/05 03:48:44;;;;;;;33.45;30.23;;;;;;;-140.79;100.00;63287.88;5014993;28;20266;-56
2022/07/05 03:51:09;;;;;;;36.50;33.20;;;;;;;-140.79;100.00;63287.88;5017396;28;20025;-56
2022/07/05 03:53:35;;;;;;;32.03;29.02;;;;;;;-140.79;100.00;63287.88;5015994;28;20095;-58
2022/07/05 03:56:00;;;;;;;32.85;29.95;;;;;;;-140.79;100.00;63287.88;5015851;28;20033;-57
2022/07/05 03:58:26;;;;;;;32.90;29.92;;;;;;;-140.79;100.00;63287.88;5016179;28;20041;-54
2022/07/05 04:00:51;;;;;;;39.28;35.05;;;;;;;-140.79;100.00;63287.88;5017146;28;20049;-54
2022/07/05 04:03:17;;;;;;;35.00;31.75;;;;;;;-140.79;100.00;63287.88;5015549;28;20472;-57
2022/07/05 04:05:42;;;;;;;34.53;31.38;;;;;;;-140.79;100.00;63287.88;5015462;28;20668;-57
2022/07/05 04:08:08;;;;;;;34.28;31.23;;;;;;;-140.79;100.00;63287.88;4999023;28;20033;-55
2022/07/05 04:10:33;;;;;;;41.80;37.75;;;;;;;-140.79;100.00;63287.88;5020152;28;20045;-55
2022/07/05 04:12:59;;;;;;;33.45;30.35;;;;;;;-140.79;100.00;63287.88;5019690;28;20614;-55
2022/07/05 04:15:24;;;;;;;37.50;34.13;;;;;;;-140.79;100.00;63287.88;5015676;28;20033;-53
2022/07/05 04:17:51;;;;;;;31.10;28.27;;;;;;;-140.79;100.00;63287.88;5016842;28;20779;-54
2022/07/05 04:20:17;;;;;;;40.53;36.42;;;;;;;-140.79;100.00;63287.88;5022070;28;20457;-54
2022/07/05 04:22:42;;;;;;;35.03;31.73;;;;;;;-140.79;100.00;63287.88;5021148;28;20488;-54
2022/07/05 04:25:17;;;;;;;43.58;39.42;;;;;;;-140.79;100.00;63287.88;5021340;28;20036;-56
2022/07/05 04:27:46;;;;;;;41.95;37.95;;;;;;;-140.79;100.00;63287.88;5020092;28;20140;-56
2022/07/05 04:30:12;;;;;;;37.43;33.73;;;;;;;-140.79;100.00;63287.88;5013999;28;20660;-60
2022/07/05 04:32:38;;;;;;;40.83;36.90;;;;;;;-140.79;100.00;63287.88;5021821;28;20136;-58
2022/07/05 04:35:03;;;;;;;42.65;38.55;;;;;;;-140.79;100.00;63287.88;5021119;28;20025;-54
2022/07/05 04:37:29;;;;;;;28.15;25.48;;;;;;;-140.79;100.00;63287.88;5022123;28;20025;-55
2022/07/05 04:39:54;;;;;;;31.73;28.55;;;;;;;-140.79;100.00;63287.88;5021442;28;20041;-54
2022/07/05 04:42:20;;;;;;;31.80;28.83;;;;;;;-140.79;100.00;63287.88;5021395;28;20029;-56
2022/07/05 04:44:45;;;;;;;37.53;34.10;;;;;;;-140.79;100.00;63287.88;5021218;28;20622;-54
2022/07/05 04:47:11;;;;;;;46.95;42.38;;;;;;;-140.79;100.00;63287.88;4998737;28;20080;-55
2022/07/05 04:49:36;;;;;;;46.03;41.67;;;;;;;-140.79;100.00;63287.88;5020335;28;20033;-54
2022/07/05 04:52:02;;;;;;;51.05;46.10;;;;;;;-140.79;100.00;63287.88;5020931;28;20040;-54
2022/07/05 04:54:27;;;;;;;51.35;45.80;;;;;;;-140.79;100.00;63287.88;5021940;28;20587;-55
2022/07/05 04:56:53;;;;;;;53.60;47.95;;;;;;;-140.79;100.00;63287.88;5001459;28;20033;-55
2022/07/05 04:59:18;;;;;;;41.25;37.03;;;;;;;-140.79;100.00;63287.88;5002277;28;20029;-55
2022/07/05 05:01:44;;;;;;;46.67;41.83;;;;;;;-140.79;100.00;63287.88;5017926;28;20442;-55
2022/07/05 05:04:09;;;;;;;45.17;40.90;;;;;;;-140.79;100.00;63287.88;5011251;28;20088;-56
2022/07/05 05:06:34;;;;;;;53.63;48.00;;;;;;;-140.79;100.00;63287.88;5011501;28;20041;-54
2022/07/05 05:09:00;;;;;;;52.78;43.67;;;;;;;-140.79;100.00;63287.88;5008833;28;20425;-53
2022/07/05 05:11:25;;;;;;;48.95;44.10;;;;;;;-140.79;100.00;63287.88;5024688;28;20100;-55
2022/07/05 05:13:51;;;;;;;53.78;47.92;;;;;;;-140.79;100.00;63287.88;5024229;28;20045;-59
2022/07/05 05:16:16;;;;;;;53.65;48.05;;;;;;;-140.79;100.00;63287.88;5025004;28;20095;-56
2022/07/05 05:18:42;;;;;;;55.80;49.88;;;;;;;-140.79;100.00;63287.88;5023073;28;20033;-57
2022/07/05 05:21:07;;;;;;;54.20;48.53;;;;;;;-140.79;100.00;63287.88;5012793;28;20025;-56
2022/07/05 05:23:33;;;;;;;50.97;45.83;;;;;;;-140.79;100.00;63287.88;5012807;28;20501;-57
2022/07/05 05:25:58;;;;;;;50.17;45.20;;;;;;;-140.79;100.00;63287.88;5008274;28;20060;-54
2022/07/05 05:28:23;;;;;;;52.80;47.30;;;;;;;-140.79;100.00;63287.88;5012166;28;20061;-57
2022/07/05 05:30:49;;;;;;;53.38;47.70;;;;;;;-140.79;100.00;63287.88;5016935;28;20079;-56
2022/07/05 05:33:14;;;;;;;57.03;50.83;;;;;;;-140.79;100.00;63287.88;5012494;28;20617;-57
2022/07/05 05:35:40;;;;;;;47.63;42.97;;;;;;;-140.79;100.00;63287.88;5018275;28;20025;-55
2022/07/05 05:38:05;;;;;;;49.85;44.85;;;;;;;-140.79;100.00;63287.88;5023221;28;20724;-55
2022/07/05 05:40:32;;;;;;;60.03;52.28;;;;;;;-140.79;100.00;63287.88;5018611;28;20705;-54
2022/07/05 05:42:58;;;;;;;55.45;49.88;;;;;;;-140.79;100.00;63287.88;5011055;28;20236;-55
2022/07/05 05:45:23;;;;;;;60.15;53.15;;;;;;;-140.79;100.00;63287.88;5021157;28;20598;-54
2022/07/05 05:47:51;;;;;;;57.22;51.17;;;;;;;-140.79;100.00;63287.88;5021071;28;20041;-55
2022/07/05 05:50:20;;;;;;;56.78;50.42;;;;;;;-140.79;100.00;63287.88;5022745;28;20017;-54
2022/07/05 05:52:46;;;;;;;54.00;48.53;;;;;;;-140.79;100.00;63287.88;4990799;28;20462;-53
2022/07/05 05:55:11;;;;;;;45.95;41.15;;;;;;;-140.79;100.00;63287.88;5021164;28;20029;-61
2022/07/05 05:57:37;;;;;;;40.67;36.72;;;;;;;-140.79;100.00;63287.88;5020772;28;20128;-53
2022/07/05 06:00:04;;;;;;;52.95;46.08;;;;;;;-140.79;100.00;63287.88;5021413;28;20589;-54
2022/07/05 06:02:30;;;;;;;46.58;42.05;;;;;;;-140.79;100.00;63287.88;5021302;28;20435;-55
2022/07/05 06:04:55;;;;;;;49.97;44.85;;;;;;;-140.79;100.00;63287.88;5013004;28;20121;-55
2022/07/05 06:07:20;;;;;;;54.90;49.20;;;;;;;-140.79;100.00;63287.88;5016185;28;20519;-54
2022/07/05 06:09:46;;;;;;;43.58;39.22;;;;;;;-140.79;100.00;63287.88;5018784;28;20033;-54
2022/07/05 06:12:11;;;;;;;47.72;43.03;;;;;;;-140.79;100.00;63287.88;4992969;28;20037;-56
2022/07/05 06:14:37;;;;;;;47.50;42.78;;;;;;;-140.79;100.00;63287.88;5016858;28;20029;-55
2022/07/05 06:17:03;;;;;;;38.55;34.92;;;;;;;-140.79;100.00;63287.88;5018930;28;20112;-60
2022/07/05 06:19:28;;;;;;;44.80;40.40;;;;;;;-140.79;100.00;63287.88;5018361;28;20022;-54
2022/07/05 06:21:53;;;;;;;58.00;49.35;;;;;;;-140.79;100.00;63287.88;5018783;28;20041;-55
2022/07/05 06:24:19;;;;;;;53.80;48.20;;;;;;;-140.79;100.00;63287.88;5002597;28;20025;-54
2022/07/05 06:26:44;;;;;;;53.00;47.72;;;;;;;-140.79;100.00;63287.88;5014645;28;20427;-53
2022/07/05 06:29:10;;;;;;;45.85;40.95;;;;;;;-140.79;100.00;63287.88;5019996;28;20018;-53
2022/07/05 06:31:35;;;;;;;61.58;54.30;;;;;;;-140.79;100.00;63287.88;5010829;28;20018;-55
2022/07/05 06:34:01;;;;;;;49.50;44.45;;;;;;;-140.79;100.00;63287.88;5019049;28;20025;-56
2022/07/05 06:36:26;;;;;;;52.42;45.08;;;;;;;-140.79;100.00;63287.88;5010337;28;20021;-53
2022/07/05 06:38:51;;;;;;;55.72;49.45;;;;;;;-140.79;100.00;63287.88;5015261;28;20030;-57
2022/07/05 06:41:17;;;;;;;48.60;43.33;;;;;;;-140.79;100.00;63287.88;5016081;28;20511;-55
2022/07/05 06:43:42;;;;;;;51.10;45.70;;;;;;;-140.79;100.00;63287.88;5014198;28;20577;-52
2022/07/05 06:46:08;;;;;;;51.05;45.38;;;;;;;-140.79;100.00;63287.88;5015773;28;20053;-54
2022/07/05 06:48:33;;;;;;;45.50;40.67;;;;;;;-140.79;100.00;63287.88;5014523;28;20158;-53
2022/07/05 06:50:59;;;;;;;54.28;48.17;;;;;;;-140.79;100.00;63287.88;5015132;28;20541;-54
2022/07/05 06:53:24;;;;;;;47.35;42.75;;;;;;;-140.79;100.00;63287.88;5017154;28;20105;-54
2022/07/05 06:55:50;;;;;;;40.97;36.60;;;;;;;-140.79;100.00;63287.88;5014449;28;20646;-54
2022/07/05 06:58:16;;;;;;;47.78;42.78;;;;;;;-140.79;100.00;63287.88;5013669;28;20028;-55
2022/07/05 07:00:41;;;;;;;47.05;42.17;;;;;;;-140.79;100.00;63287.88;5017161;28;20021;-53
2022/07/05 07:03:07;;;;;;;50.78;45.42;;;;;;;-140.79;100.00;63287.88;5014393;28;20049;-54
2022/07/05 07:05:32;;;;;;;48.42;43.38;;;;;;;-140.79;100.00;63287.88;5017631;28;20498;-54
2022/07/05 07:10:42;;;;;;;56.50;50.05;;;;;;;-140.79;100.00;63287.88;5007775;28;20084;-54
2022/07/05 07:13:08;;;;;;;53.95;48.28;;;;;;;-140.79;100.00;63287.88;4996577;28;20710;-54
2022/07/05 07:15:33;;;;;;;45.20;40.53;;;;;;;-140.79;100.00;63287.88;5010023;28;20156;-55
2022/07/05 07:17:59;;;;;;;54.90;49.10;;;;;;;-140.79;100.00;63287.88;5004782;28;20512;-56
2022/07/05 07:20:24;;;;;;;57.08;50.35;;;;;;;-140.79;100.00;63287.88;5004874;28;20440;-54
2022/07/05 07:22:50;;;;;;;49.25;44.10;;;;;;;-140.79;100.00;63287.88;5013286;28;21486;-55
2022/07/05 07:25:17;;;;;;;55.28;49.33;;;;;;;-140.79;100.00;63287.88;5008025;28;20063;-58
2022/07/05 07:27:44;;;;;;;50.63;45.05;;;;;;;-140.79;100.00;63287.88;5003039;28;20056;-55
2022/07/05 07:30:11;;;;;;;54.55;47.60;;;;;;;-140.79;100.00;63287.88;5013240;28;20108;-54
2022/07/05 07:32:37;;;;;;;63.50;56.55;;;;;;;-140.79;100.00;63287.88;4997854;28;20030;-53
2022/07/05 07:35:02;;;;;;;62.28;53.97;;;;;;;-140.79;100.00;63287.88;5019249;28;20088;-55
2022/07/05 07:37:28;;;;;;;54.55;48.63;;;;;;;-140.79;100.00;63287.88;5005649;28;20506;-55
2022/07/05 07:39:53;;;;;;;68.60;54.13;;;;;;;-140.79;100.00;63287.88;5014544;28;20042;-54
2022/07/05 07:42:18;;;;;;;59.28;52.75;;;;;;;-140.79;100.00;63287.88;5018365;28;20511;-54
2022/07/05 07:44:44;;;;;;;65.75;54.55;;;;;;;-140.79;100.00;63287.88;5020996;28;20491;-55
2022/07/05 07:47:09;;;;;;;64.70;52.22;;;;;;;-140.79;100.00;63287.88;5021895;28;20026;-56
2022/07/05 07:49:36;;;;;;;67.70;58.22;;;;;;;-140.79;100.00;63287.88;5022201;28;20059;-55
2022/07/05 07:52:02;;;;;;;61.78;54.72;;;;;;;-140.79;100.00;63287.88;5019999;28;20025;-60
2022/07/05 07:54:28;;;;;;;58.70;51.08;;;;;;;-140.79;100.00;63287.88;5022532;28;20033;-55
2022/07/05 07:56:53;;;;;;;75.47;61.05;;;;;;;-140.79;100.00;63287.88;5000650;28;20064;-54
2022/07/05 07:59:19;;;;;;;82.85;63.95;;;;;;;-140.79;100.00;63287.88;5010430;28;20033;-55
2022/07/05 08:01:44;;;;;;;84.95;64.72;;;;;;;-140.79;100.00;63287.88;5010940;28;20068;-54
2022/07/05 08:04:11;;;;;;;84.03;67.20;;;;;;;-140.79;100.00;63287.88;5020314;28;20468;-60
2022/07/05 08:06:36;;;;;;;75.68;62.72;;;;;;;-140.79;100.00;63287.88;5007337;28;20037;-55
2022/07/05 08:09:02;;;;;;;75.85;61.90;;;;;;;-140.79;100.00;63287.88;5021369;28;20529;-54
2022/07/05 08:11:27;;;;;;;89.78;68.75;;;;;;;-140.79;100.00;63287.88;5021731;28;20037;-55
2022/07/05 08:13:53;;;;;;;80.50;64.05;;;;;;;-140.79;100.00;63287.88;5021049;28;20038;-55
2022/07/05 08:16:18;;;;;;;98.25;73.40;;;;;;;-140.79;100.00;63287.88;5020739;28;20029;-54
2022/07/05 08:21:31;;;;;;;105.53;76.05;;;;;;;-140.79;100.00;63287.88;5019240;28;20103;-54
2022/07/05 08:24:04;;;;;;;94.80;72.05;;;;;;;-140.79;100.00;63287.88;5020099;28;20029;-56
2022/07/05 08:26:32;;;;;;;89.97;69.20;;;;;;;-140.79;100.00;63287.88;4999945;28;20037;-55
2022/07/05 08:29:01;;;;;;;99.72;74.35;;;;;;;-140.79;100.00;63287.88;5011744;28;20022;-55
2022/07/05 08:31:27;;;;;;;104.75;76.47;;;;;;;-140.79;100.00;63287.88;4981270;28;20033;-55
2022/07/05 08:33:53;;;;;;;103.57;76.57;;;;;;;-140.79;100.00;63287.88;4981537;28;20032;-57
2022/07/05 08:36:18;;;;;;;104.10;77.25;;;;;;;-140.79;100.00;63287.88;5021178;28;20021;-56
2022/07/05 08:38:44;;;;;;;101.70;75.50;;;;;;;-140.79;100.00;63287.88;5018568;28;20504;-55
2022/07/05 08:41:10;;;;;;;104.55;77.38;;;;;;;-140.79;100.00;63287.88;5017877;28;20111;-54
2022/07/05 08:43:40;;;;;;;97.55;73.93;;;;;;;-140.79;100.00;63287.88;4999710;28;20140;-54
2022/07/05 08:46:08;;;;;;;105.07;77.85;;;;;;;-140.79;100.00;63287.88;5017336;28;20057;-56
2022/07/05 08:48:34;;;;;;;102.45;76.15;;;;;;;-140.79;100.00;63287.88;4998791;28;20564;-55
2022/07/05 08:51:00;;;;;;;101.43;74.53;;;;;;;-140.79;100.00;63287.88;4982672;28;20076;-54
2022/07/05 08:53:25;;;;;;;119.45;82.88;;;;;;;-140.79;100.00;63287.88;4998874;28;20053;-54
2022/07/05 08:55:51;;;;;;;127.43;86.82;;;;;;;-140.79;100.00;63287.88;4985543;28;20025;-56
2022/07/05 08:58:16;;;;;;;113.50;79.93;;;;;;;-140.79;100.00;63287.88;4985735;28;20361;-56
2022/07/05 09:00:42;;;;;;;112.50;79.15;;;;;;;-140.79;100.00;63287.88;5016758;28;20310;-55
2022/07/05 09:03:07;;;;;;;102.05;76.32;;;;;;;-140.79;100.00;63287.88;5003868;28;20069;-58
2022/07/05 09:05:43;;;;;;;114.95;81.80;;;;;;;-140.79;100.00;63287.88;5019150;28;20124;-56
2022/07/05 09:08:10;;;;;;;116.20;81.28;;;;;;;-140.79;100.00;63287.88;4999339;28;20049;-55
2022/07/05 09:10:37;;;;;;;108.75;78.22;;;;;;;-140.79;100.00;63287.88;4998180;28;20025;-54
2022/07/05 09:13:02;;;;;;;123.03;85.28;;;;;;;-140.79;100.00;63287.88;5018839;28;20594;-56
2022/07/05 09:15:28;;;;;;;115.55;82.22;;;;;;;-140.79;100.00;63287.88;5020787;28;20021;-57
2022/07/05 09:17:53;;;;;;;106.05;78.55;;;;;;;-140.79;100.00;63287.88;5000427;28;20041;-55
2022/07/05 09:20:19;;;;;;;122.82;85.78;;;;;;;-140.79;100.00;63287.88;5011787;28;20087;-58
2022/07/05 09:22:52;;;;;;;125.90;85.97;;;;;;;-140.79;100.00;63287.88;5020944;28;20595;-55
2022/07/05 09:25:28;;;;;;;116.95;80.90;;;;;;;-140.79;100.00;63287.88;5020189;28;20025;-54
2022/07/05 09:28:03;;;;;;;101.57;75.43;;;;;;;-140.79;100.00;63287.88;5019534;28;20060;-56
2022/07/05 09:30:34;;;;;;;104.78;78.18;;;;;;;-140.79;100.00;63287.88;5013063;28;20095;-54
2022/07/05 09:33:15;;;;;;;107.68;77.82;;;;;;;-140.79;100.00;63287.88;5017146;28;20025;-57
2022/07/05 09:35:56;;;;;;;110.38;80.10;;;;;;;-140.79;100.00;63287.88;5022238;28;20428;-55
2022/07/05 09:38:22;;;;;;;124.35;85.13;;;;;;;-140.79;100.00;63287.88;5022949;28;20536;-60
2022/07/05 09:40:48;;;;;;;127.82;88.20;;;;;;;-140.79;100.00;63287.88;5019225;28;20132;-54
2022/07/05 09:43:29;;;;;;;112.22;81.82;;;;;;;-140.79;100.00;63287.88;5017385;28;20068;-55
2022/07/05 09:45:59;;;;;;;126.35;88.30;;;;;;;-140.79;100.00;63287.88;5017745;28;20054;-55
2022/07/05 09:48:26;;;;;;;117.88;84.20;;;;;;;-140.79;100.00;63287.88;5013124;28;20026;-55
2022/07/05 09:50:51;;;;;;;126.65;86.28;;;;;;;-140.79;100.00;63287.88;5014792;28;20044;-58
2022/07/05 09:53:20;;;;;;;134.27;91.10;;;;;;;-140.79;100.00;63287.88;4970449;28;20038;-57
2022/07/05 09:56:06;;;;;;;114.35;82.70;;;;;;;-140.79;100.00;63287.88;4961053;28;20084;-53
2022/07/05 09:58:32;;;;;;;101.85;76.85;;;;;;;-140.79;100.00;63287.88;4995127;28;20064;-54
2022/07/05 10:00:57;;;;;;;101.53;77.18;;;;;;;-140.79;100.00;63287.88;5000029;28;20113;-59
2022/07/05 10:03:23;;;;;;;99.43;77.20;;;;;;;-140.79;100.00;63287.88;4998914;28;20770;-54
2022/07/05 10:05:48;;;;;;;105.60;77.85;;;;;;;-140.79;100.00;63287.88;4989332;28;20030;-54
2022/07/05 10:08:14;;;;;;;97.72;75.28;;;;;;;-140.79;100.00;63287.88;4985307;28;20034;-54
2022/07/05 10:10:39;;;;;;;96.70;73.88;;;;;;;-140.79;100.00;63287.88;4997968;28;20098;-56
2022/07/05 10:13:06;;;;;;;80.50;65.97;;;;;;;-140.79;100.00;63287.88;4997498;28;20673;-59
2022/07/05 10:15:35;;;;;;;74.05;62.38;;;;;;;-140.79;100.00;63287.88;4999042;28;20152;-55
2022/07/05 10:18:04;;;;;;;80.40;66.77;;;;;;;-140.79;100.00;63287.88;4997209;28;20088;-54
2022/07/05 10:20:45;;;;;;;83.43;67.00;;;;;;;-140.79;100.00;63287.88;4997956;28;20655;-55
2022/07/05 10:23:14;;;;;;;80.53;66.53;;;;;;;-140.79;100.00;63287.88;4998827;28;20104;-52
2022/07/05 10:25:43;;;;;;;75.90;63.78;;;;;;;-140.79;100.00;63287.88;4998039;28;20516;-56
2022/07/05 10:28:08;;;;;;;92.10;72.28;;;;;;;-140.79;100.00;63287.88;4994404;28;20080;-56
2022/07/05 10:30:34;;;;;;;95.72;74.43;;;;;;;-140.79;100.00;63287.88;4995108;28;20678;-57
2022/07/05 10:33:03;;;;;;;107.95;80.78;;;;;;;-140.79;100.00;63287.88;4998197;28;20022;-54
2022/07/05 10:35:29;;;;;;;94.40;74.57;;;;;;;-140.79;100.00;63287.88;4979120;28;20033;-57
2022/07/05 10:37:54;;;;;;;89.32;71.00;;;;;;;-140.79;100.00;63287.88;4993197;28;20034;-58
2022/07/05 10:40:20;;;;;;;97.78;74.82;;;;;;;-140.79;100.00;63287.88;4964378;28;20041;-53
2022/07/05 10:42:54;;;;;;;89.00;71.47;;;;;;;-140.79;100.00;63287.88;4998265;28;20341;-51
2022/07/05 10:45:31;;;;;;;107.38;80.20;;;;;;;-140.79;100.00;63287.88;4981848;28;20420;-52
2022/07/05 10:48:19;;;;;;;85.70;69.65;;;;;;;-140.79;100.00;63287.88;4995908;28;20105;-52
2022/07/05 10:51:15;;;;;;;92.55;72.63;;;;;;;-140.79;100.00;63287.88;4997786;28;20076;-55
2022/07/05 10:53:40;;;;;;;97.30;74.53;;;;;;;-140.79;100.00;63287.88;4998608;28;20192;-54